createdAt,value
2023-04-15T00:00:02.419Z,9.7
2023-04-15T00:15:02.020Z,9.71
2023-04-15T00:30:01.604Z,9.7
2023-04-15T00:45:02.198Z,9.31
2023-04-15T01:00:01.831Z,9.25
2023-04-15T01:15:02.456Z,9.05
2023-04-15T01:30:02.062Z,8.94
2023-04-15T01:45:01.744Z,8.64
2023-04-15T02:00:02.371Z,8.43
2023-04-15T02:15:02.014Z,8.25
2023-04-15T02:30:01.744Z,8.03
2023-04-15T02:45:02.372Z,7.82
2023-04-15T03:00:02.039Z,7.53
2023-04-15T03:15:01.668Z,7.37
2023-04-15T03:30:02.347Z,7.22
2023-04-15T03:45:01.975Z,6.97
2023-04-15T04:00:01.670Z,6.75
2023-04-15T04:15:02.339Z,6.66
2023-04-15T04:30:01.622Z,6.59
2023-04-15T04:45:02.243Z,6.98
2023-04-15T05:00:01.942Z,7.05
2023-04-15T05:15:01.599Z,7.05
2023-04-15T05:30:02.256Z,7.16
2023-04-15T05:45:01.892Z,7.3
2023-04-15T06:00:02.522Z,7.44
2023-04-15T06:15:02.151Z,7.58
2023-04-15T06:30:01.826Z,7.8
2023-04-15T06:45:02.385Z,8.04
2023-04-15T07:00:02.184Z,8.24
2023-04-15T07:15:01.798Z,8.49
2023-04-15T07:30:02.467Z,8.28
2023-04-15T07:45:02.088Z,8.41
2023-04-15T08:00:01.848Z,8.36
2023-04-15T08:15:02.475Z,8.53
2023-04-15T08:30:04.591Z,8.84
2023-04-15T08:45:01.786Z,8.89
2023-04-15T09:00:04.722Z,8.9
2023-04-15T09:15:02.132Z,9.12
2023-04-15T09:30:01.793Z,9.18
2023-04-15T09:45:02.369Z,9.27
2023-04-15T10:00:01.979Z,9.6
2023-04-15T10:15:01.607Z,9.55
2023-04-15T10:30:02.238Z,9.61
2023-04-15T10:45:01.854Z,9.69
2023-04-15T11:00:02.492Z,9.8
2023-04-15T11:15:02.145Z,9.81
2023-04-15T11:30:01.846Z,10.21
2023-04-15T11:45:02.417Z,9.97
2023-04-15T12:00:02.034Z,10
2023-04-15T12:15:01.628Z,10.17
2023-04-15T12:30:02.267Z,10.06
2023-04-15T12:45:01.892Z,10.47
2023-04-15T13:00:02.564Z,10.33
2023-04-15T13:15:04.345Z,10.32
2023-04-15T13:30:02.203Z,10.23
2023-04-15T13:45:01.832Z,10.15
2023-04-15T14:00:02.437Z,10.08
2023-04-15T14:15:02.030Z,9.89
2023-04-15T14:30:01.652Z,10.06
2023-04-15T14:45:02.281Z,10.01
2023-04-15T15:00:02.136Z,10.14
2023-04-15T15:15:04.993Z,10.47
2023-04-15T15:30:02.280Z,10.18
2023-04-15T15:45:02.002Z,10.26
2023-04-15T16:00:11.474Z,10.25
2023-04-15T16:15:02.188Z,10.5
2023-04-15T16:30:01.855Z,10.45
2023-04-15T16:45:02.469Z,10.67
2023-04-15T17:00:02.051Z,10.54
2023-04-15T17:15:01.752Z,10.75
2023-04-15T17:30:02.511Z,10.96
2023-04-15T17:45:02.089Z,10.9
2023-04-15T18:00:01.676Z,10.82
2023-04-15T18:15:02.320Z,11.03
2023-04-15T18:30:02.046Z,10.84
2023-04-15T18:45:01.692Z,10.95
2023-04-15T19:00:02.298Z,10.96
2023-04-15T19:15:01.878Z,11.06
2023-04-15T19:30:02.523Z,10.9
2023-04-15T19:45:02.195Z,11.05
2023-04-15T20:00:01.797Z,11.01
2023-04-15T20:15:02.491Z,11
2023-04-15T20:30:02.161Z,11.09
2023-04-15T20:45:01.823Z,10.98
2023-04-15T21:00:02.512Z,11.12
2023-04-15T21:15:02.219Z,11.13
2023-04-15T21:30:01.893Z,11.28
2023-04-15T21:45:02.486Z,11.35
2023-04-15T22:00:02.241Z,11.22
2023-04-15T22:15:01.921Z,11.26
2023-04-15T22:30:01.568Z,11.2
2023-04-15T22:45:02.191Z,11.3
2023-04-15T23:00:01.913Z,11.25
2023-04-15T23:15:01.641Z,11.23
2023-04-15T23:30:02.358Z,11.08
2023-04-15T23:45:01.970Z,11.29
